sensor_id;sensor_type;location;lat;lon;timestamp;pressure;altitude;pressure_sealevel;temperature;humidity
56182;BME280;51963;46.052;14.544;2023-02-03T00:02:04;99160.38;;;2.16;100.00
56182;BME280;51963;46.052;14.544;2023-02-03T00:04:30;99156.09;;;2.15;100.00
56182;BME280;51963;46.052;14.544;2023-02-03T00:06:55;99158.72;;;2.15;100.00
56182;BME280;51963;46.052;14.544;2023-02-03T00:09:21;99154.94;;;2.19;100.00
56182;BME280;51963;46.052;14.544;2023-02-03T00:11:47;99161.81;;;2.20;100.00
56182;BME280;51963;46.052;14.544;2023-02-03T00:14:12;99155.53;;;2.23;100.00
56182;BME280;51963;46.052;14.544;2023-02-03T00:16:38;99159.69;;;2.26;100.00
56182;BME280;51963;46.052;14.544;2023-02-03T00:19:03;99155.53;;;2.23;100.00
56182;BME280;51963;46.052;14.544;2023-02-03T00:21:29;99158.84;;;2.25;100.00
56182;BME280;51963;46.052;14.544;2023-02-03T00:23:54;99156.50;;;2.33;100.00
56182;BME280;51963;46.052;14.544;2023-02-03T00:26:27;99165.06;;;2.58;100.00
56182;BME280;51963;46.052;14.544;2023-02-03T00:28:53;99158.31;;;2.44;100.00
56182;BME280;51963;46.052;14.544;2023-02-03T00:31:22;99160.06;;;2.44;100.00
56182;BME280;51963;46.052;14.544;2023-02-03T00:33:55;99157.81;;;2.39;100.00
56182;BME280;51963;46.052;14.544;2023-02-03T00:36:21;99153.78;;;2.35;100.00
56182;BME280;51963;46.052;14.544;2023-02-03T00:38:46;99157.22;;;2.35;100.00
56182;BME280;51963;46.052;14.544;2023-02-03T00:41:14;99165.88;;;2.36;100.00
56182;BME280;51963;46.052;14.544;2023-02-03T00:43:41;99155.22;;;2.39;100.00
56182;BME280;51963;46.052;14.544;2023-02-03T00:46:07;99161.88;;;2.43;100.00
56182;BME280;51963;46.052;14.544;2023-02-03T00:48:33;99164.00;;;2.49;100.00
56182;BME280;51963;46.052;14.544;2023-02-03T00:50:59;99173.28;;;2.54;100.00
56182;BME280;51963;46.052;14.544;2023-02-03T00:53:24;99172.47;;;2.76;100.00
56182;BME280;51963;46.052;14.544;2023-02-03T00:55:50;99168.78;;;2.78;100.00
56182;BME280;51963;46.052;14.544;2023-02-03T00:58:16;99169.16;;;2.74;100.00
56182;BME280;51963;46.052;14.544;2023-02-03T01:00:42;99167.72;;;2.70;100.00
56182;BME280;51963;46.052;14.544;2023-02-03T01:03:07;99167.25;;;2.76;100.00
56182;BME280;51963;46.052;14.544;2023-02-03T01:05:33;99160.84;;;2.69;100.00
56182;BME280;51963;46.052;14.544;2023-02-03T01:07:59;99168.31;;;2.62;100.00
56182;BME280;51963;46.052;14.544;2023-02-03T01:10:25;99165.31;;;2.55;100.00
56182;BME280;51963;46.052;14.544;2023-02-03T01:12:50;99170.91;;;2.51;100.00
56182;BME280;51963;46.052;14.544;2023-02-03T01:15:16;99166.16;;;2.56;100.00
56182;BME280;51963;46.052;14.544;2023-02-03T01:17:41;99170.06;;;2.61;100.00
56182;BME280;51963;46.052;14.544;2023-02-03T01:20:07;99174.72;;;2.81;100.00
56182;BME280;51963;46.052;14.544;2023-02-03T01:22:33;99179.69;;;2.61;100.00
56182;BME280;51963;46.052;14.544;2023-02-03T01:24:59;99179.31;;;2.54;100.00
56182;BME280;51963;46.052;14.544;2023-02-03T01:27:24;99185.00;;;2.48;100.00
56182;BME280;51963;46.052;14.544;2023-02-03T01:29:50;99168.75;;;2.44;100.00
56182;BME280;51963;46.052;14.544;2023-02-03T01:32:15;99180.44;;;2.27;100.00
56182;BME280;51963;46.052;14.544;2023-02-03T01:34:41;99172.28;;;2.32;100.00
56182;BME280;51963;46.052;14.544;2023-02-03T01:37:06;99168.28;;;2.51;100.00
56182;BME280;51963;46.052;14.544;2023-02-03T01:39:32;99169.72;;;2.55;100.00
56182;BME280;51963;46.052;14.544;2023-02-03T01:41:58;99160.50;;;2.26;100.00
56182;BME280;51963;46.052;14.544;2023-02-03T01:44:57;99165.78;;;2.02;100.00
56182;BME280;51963;46.052;14.544;2023-02-03T01:47:21;99154.69;;;2.23;100.00
56182;BME280;51963;46.052;14.544;2023-02-03T01:49:48;99158.00;;;2.13;100.00
56182;BME280;51963;46.052;14.544;2023-02-03T01:52:17;99152.75;;;2.02;100.00
56182;BME280;51963;46.052;14.544;2023-02-03T01:54:43;99154.09;;;1.83;100.00
56182;BME280;51963;46.052;14.544;2023-02-03T01:57:12;99160.09;;;1.72;100.00
56182;BME280;51963;46.052;14.544;2023-02-03T01:59:40;99159.00;;;1.64;100.00
56182;BME280;51963;46.052;14.544;2023-02-03T02:02:06;99160.69;;;1.52;100.00
56182;BME280;51963;46.052;14.544;2023-02-03T02:04:34;99167.41;;;1.43;100.00
56182;BME280;51963;46.052;14.544;2023-02-03T02:07:02;99164.72;;;1.31;100.00
56182;BME280;51963;46.052;14.544;2023-02-03T02:09:28;99161.50;;;1.28;100.00
56182;BME280;51963;46.052;14.544;2023-02-03T02:11:53;99166.19;;;1.23;100.00
56182;BME280;51963;46.052;14.544;2023-02-03T02:14:19;99160.59;;;1.16;100.00
56182;BME280;51963;46.052;14.544;2023-02-03T02:37:23;99155.25;;;0.67;100.00
56182;BME280;51963;46.052;14.544;2023-02-03T02:39:54;99164.50;;;0.58;100.00
56182;BME280;51963;46.052;14.544;2023-02-03T02:44:50;99158.59;;;0.43;100.00
56182;BME280;51963;46.052;14.544;2023-02-03T02:47:18;99163.28;;;0.38;100.00
56182;BME280;51963;46.052;14.544;2023-02-03T02:52:46;99164.41;;;0.47;100.00
56182;BME280;51963;46.052;14.544;2023-02-03T02:55:14;99173.69;;;0.38;100.00
56182;BME280;51963;46.052;14.544;2023-02-03T02:57:41;99169.41;;;0.37;100.00
56182;BME280;51963;46.052;14.544;2023-02-03T03:00:08;99192.50;;;0.29;100.00
56182;BME280;51963;46.052;14.544;2023-02-03T03:02:34;99198.09;;;0.23;100.00
56182;BME280;51963;46.052;14.544;2023-02-03T03:05:01;99205.38;;;0.18;100.00
56182;BME280;51963;46.052;14.544;2023-02-03T03:07:29;99210.78;;;0.14;100.00
56182;BME280;51963;46.052;14.544;2023-02-03T03:09:57;99204.94;;;0.11;100.00
56182;BME280;51963;46.052;14.544;2023-02-03T03:12:31;99207.84;;;0.06;100.00
56182;BME280;51963;46.052;14.544;2023-02-03T03:15:03;99214.06;;;0.04;100.00
56182;BME280;51963;46.052;14.544;2023-02-03T03:17:30;99218.66;;;0.00;100.00
56182;BME280;51963;46.052;14.544;2023-02-03T03:19:59;99237.84;;;-0.03;100.00
56182;BME280;51963;46.052;14.544;2023-02-03T03:22:27;99248.34;;;-0.04;100.00
56182;BME280;51963;46.052;14.544;2023-02-03T03:24:57;99245.94;;;-0.07;100.00
56182;BME280;51963;46.052;14.544;2023-02-03T03:27:27;99228.66;;;-0.08;100.00
56182;BME280;51963;46.052;14.544;2023-02-03T03:29:55;99225.78;;;-0.04;100.00
56182;BME280;51963;46.052;14.544;2023-02-03T03:32:21;99225.13;;;-0.07;100.00
56182;BME280;51963;46.052;14.544;2023-02-03T03:34:47;99229.59;;;-0.09;100.00
56182;BME280;51963;46.052;14.544;2023-02-03T03:37:23;99230.66;;;-0.12;100.00
56182;BME280;51963;46.052;14.544;2023-02-03T03:39:56;99224.59;;;-0.12;100.00
56182;BME280;51963;46.052;14.544;2023-02-03T03:42:24;99213.47;;;-0.15;100.00
56182;BME280;51963;46.052;14.544;2023-02-03T03:45:04;99208.06;;;-0.11;100.00
56182;BME280;51963;46.052;14.544;2023-02-03T03:47:34;99213.81;;;-0.34;100.00
56182;BME280;51963;46.052;14.544;2023-02-03T03:50:03;99209.56;;;-0.35;100.00
56182;BME280;51963;46.052;14.544;2023-02-03T03:52:31;99202.88;;;-0.39;100.00
56182;BME280;51963;46.052;14.544;2023-02-03T03:54:59;99202.03;;;-0.39;100.00
56182;BME280;51963;46.052;14.544;2023-02-03T03:57:42;99193.22;;;-0.37;100.00
56182;BME280;51963;46.052;14.544;2023-02-03T04:00:09;99202.50;;;-0.33;100.00
56182;BME280;51963;46.052;14.544;2023-02-03T04:02:38;99208.91;;;-0.38;100.00
56182;BME280;51963;46.052;14.544;2023-02-03T04:05:04;99215.22;;;-0.42;100.00
56182;BME280;51963;46.052;14.544;2023-02-03T04:07:36;99220.78;;;-0.34;100.00
56182;BME280;51963;46.052;14.544;2023-02-03T04:10:03;99232.09;;;-0.35;100.00
56182;BME280;51963;46.052;14.544;2023-02-03T04:12:30;99223.00;;;-0.42;100.00
56182;BME280;51963;46.052;14.544;2023-02-03T04:14:56;99221.63;;;-0.34;100.00
56182;BME280;51963;46.052;14.544;2023-02-03T04:17:21;99214.75;;;-0.35;100.00
56182;BME280;51963;46.052;14.544;2023-02-03T04:19:47;99200.38;;;-0.40;100.00
56182;BME280;51963;46.052;14.544;2023-02-03T04:22:12;99198.91;;;-0.45;100.00
56182;BME280;51963;46.052;14.544;2023-02-03T04:24:38;99203.28;;;-0.45;100.00
56182;BME280;51963;46.052;14.544;2023-02-03T04:27:03;99194.81;;;-0.49;100.00
56182;BME280;51963;46.052;14.544;2023-02-03T04:29:29;99202.69;;;-0.36;100.00
56182;BME280;51963;46.052;14.544;2023-02-03T04:31:54;99209.59;;;-0.22;100.00
56182;BME280;51963;46.052;14.544;2023-02-03T04:34:20;99203.13;;;-0.29;100.00
56182;BME280;51963;46.052;14.544;2023-02-03T04:36:45;99206.22;;;-0.37;100.00
56182;BME280;51963;46.052;14.544;2023-02-03T04:39:11;99198.50;;;-0.38;100.00
56182;BME280;51963;46.052;14.544;2023-02-03T04:41:36;99196.56;;;-0.35;100.00
56182;BME280;51963;46.052;14.544;2023-02-03T04:44:02;99188.31;;;-0.41;100.00
56182;BME280;51963;46.052;14.544;2023-02-03T04:46:27;99176.19;;;-0.28;100.00
56182;BME280;51963;46.052;14.544;2023-02-03T04:48:53;99178.22;;;-0.19;100.00
56182;BME280;51963;46.052;14.544;2023-02-03T04:51:18;99176.88;;;-0.11;100.00
56182;BME280;51963;46.052;14.544;2023-02-03T04:53:44;99170.56;;;-0.07;100.00
56182;BME280;51963;46.052;14.544;2023-02-03T04:56:10;99177.41;;;-0.06;100.00
56182;BME280;51963;46.052;14.544;2023-02-03T04:58:35;99176.75;;;-0.23;100.00
56182;BME280;51963;46.052;14.544;2023-02-03T05:01:07;99172.13;;;-0.32;100.00
56182;BME280;51963;46.052;14.544;2023-02-03T05:03:33;99171.16;;;-0.17;100.00
56182;BME280;51963;46.052;14.544;2023-02-03T05:05:59;99161.31;;;-0.39;100.00
56182;BME280;51963;46.052;14.544;2023-02-03T05:08:24;99158.25;;;-0.46;100.00
56182;BME280;51963;46.052;14.544;2023-02-03T05:10:50;99172.19;;;-0.47;100.00
56182;BME280;51963;46.052;14.544;2023-02-03T05:13:15;99153.09;;;-0.60;100.00
56182;BME280;51963;46.052;14.544;2023-02-03T05:15:41;99158.41;;;-0.62;100.00
56182;BME280;51963;46.052;14.544;2023-02-03T05:18:06;99170.56;;;-0.62;100.00
56182;BME280;51963;46.052;14.544;2023-02-03T05:20:32;99170.34;;;-0.59;100.00
56182;BME280;51963;46.052;14.544;2023-02-03T05:22:57;99175.91;;;-0.51;100.00
56182;BME280;51963;46.052;14.544;2023-02-03T05:25:23;99182.19;;;-0.40;100.00
56182;BME280;51963;46.052;14.544;2023-02-03T05:27:48;99173.56;;;-0.41;100.00
56182;BME280;51963;46.052;14.544;2023-02-03T05:30:14;99164.00;;;-0.40;100.00
56182;BME280;51963;46.052;14.544;2023-02-03T05:32:39;99171.44;;;-0.49;100.00
56182;BME280;51963;46.052;14.544;2023-02-03T05:35:05;99165.34;;;-0.62;100.00
56182;BME280;51963;46.052;14.544;2023-02-03T05:37:30;99168.16;;;-0.65;100.00
56182;BME280;51963;46.052;14.544;2023-02-03T05:39:56;99159.72;;;-0.69;100.00
56182;BME280;51963;46.052;14.544;2023-02-03T05:42:48;99163.88;;;-0.66;100.00
56182;BME280;51963;46.052;14.544;2023-02-03T05:45:13;99161.00;;;-0.62;100.00
56182;BME280;51963;46.052;14.544;2023-02-03T05:47:39;99165.16;;;-0.59;100.00
56182;BME280;51963;46.052;14.544;2023-02-03T05:50:05;99166.91;;;-0.45;100.00
56182;BME280;51963;46.052;14.544;2023-02-03T05:52:30;99163.09;;;-0.54;100.00
56182;BME280;51963;46.052;14.544;2023-02-03T05:54:55;99171.63;;;-0.52;100.00
56182;BME280;51963;46.052;14.544;2023-02-03T05:57:21;99176.63;;;-0.49;100.00
56182;BME280;51963;46.052;14.544;2023-02-03T05:59:46;99167.53;;;-0.41;100.00
56182;BME280;51963;46.052;14.544;2023-02-03T06:02:14;99165.28;;;-0.33;100.00
56182;BME280;51963;46.052;14.544;2023-02-03T06:04:39;99169.09;;;-0.39;100.00
56182;BME280;51963;46.052;14.544;2023-02-03T06:07:05;99175.16;;;-0.53;100.00
56182;BME280;51963;46.052;14.544;2023-02-03T06:09:31;99184.47;;;-0.63;100.00
56182;BME280;51963;46.052;14.544;2023-02-03T06:11:58;99197.38;;;-0.62;100.00
56182;BME280;51963;46.052;14.544;2023-02-03T06:14:26;99192.81;;;-0.58;100.00
56182;BME280;51963;46.052;14.544;2023-02-03T06:16:52;99184.47;;;-0.63;100.00
56182;BME280;51963;46.052;14.544;2023-02-03T06:19:18;99167.41;;;-0.67;100.00
56182;BME280;51963;46.052;14.544;2023-02-03T06:21:43;99166.19;;;-0.62;100.00
56182;BME280;51963;46.052;14.544;2023-02-03T06:24:11;99163.44;;;-0.46;100.00
56182;BME280;51963;46.052;14.544;2023-02-03T06:26:37;99174.66;;;-0.31;100.00
56182;BME280;51963;46.052;14.544;2023-02-03T06:29:02;99173.00;;;-0.19;100.00
56182;BME280;51963;46.052;14.544;2023-02-03T06:31:28;99177.63;;;-0.09;100.00
56182;BME280;51963;46.052;14.544;2023-02-03T06:33:54;99182.66;;;-0.21;100.00
56182;BME280;51963;46.052;14.544;2023-02-03T06:36:21;99174.31;;;-0.39;100.00
56182;BME280;51963;46.052;14.544;2023-02-03T06:38:47;99167.69;;;-0.57;100.00
56182;BME280;51963;46.052;14.544;2023-02-03T06:41:13;99169.59;;;-0.47;100.00
56182;BME280;51963;46.052;14.544;2023-02-03T06:43:39;99169.00;;;-0.37;100.00
56182;BME280;51963;46.052;14.544;2023-02-03T06:46:04;99191.63;;;0.16;100.00
56182;BME280;51963;46.052;14.544;2023-02-03T06:48:30;99195.78;;;0.05;100.00
56182;BME280;51963;46.052;14.544;2023-02-03T06:50:56;99203.50;;;0.20;100.00
56182;BME280;51963;46.052;14.544;2023-02-03T06:53:21;99209.16;;;0.39;100.00
56182;BME280;51963;46.052;14.544;2023-02-03T06:55:47;99199.81;;;0.50;100.00
56182;BME280;51963;46.052;14.544;2023-02-03T06:58:12;99202.63;;;0.47;100.00
56182;BME280;51963;46.052;14.544;2023-02-03T07:00:38;99202.09;;;0.41;100.00
56182;BME280;51963;46.052;14.544;2023-02-03T07:03:03;99193.97;;;0.33;100.00
56182;BME280;51963;46.052;14.544;2023-02-03T07:05:29;99187.50;;;0.26;100.00
56182;BME280;51963;46.052;14.544;2023-02-03T07:07:57;99193.13;;;0.33;100.00
56182;BME280;51963;46.052;14.544;2023-02-03T07:10:23;99188.16;;;0.42;100.00
56182;BME280;51963;46.052;14.544;2023-02-03T07:12:48;99183.88;;;0.54;100.00
56182;BME280;51963;46.052;14.544;2023-02-03T07:15:18;99185.66;;;0.80;100.00
56182;BME280;51963;46.052;14.544;2023-02-03T07:17:43;99182.22;;;0.40;100.00
56182;BME280;51963;46.052;14.544;2023-02-03T07:20:11;99195.34;;;0.52;100.00
56182;BME280;51963;46.052;14.544;2023-02-03T07:22:39;99198.84;;;0.25;100.00
56182;BME280;51963;46.052;14.544;2023-02-03T07:25:08;99207.72;;;0.08;100.00
56182;BME280;51963;46.052;14.544;2023-02-03T07:27:33;99204.44;;;0.19;100.00
56182;BME280;51963;46.052;14.544;2023-02-03T07:29:59;99195.72;;;0.20;100.00
56182;BME280;51963;46.052;14.544;2023-02-03T07:32:24;99195.59;;;0.21;100.00
56182;BME280;51963;46.052;14.544;2023-02-03T07:34:50;99176.06;;;0.41;100.00
56182;BME280;51963;46.052;14.544;2023-02-03T07:37:15;99166.69;;;0.39;100.00
56182;BME280;51963;46.052;14.544;2023-02-03T07:39:40;99170.50;;;1.11;100.00
56182;BME280;51963;46.052;14.544;2023-02-03T07:42:07;99186.16;;;1.48;100.00
56182;BME280;51963;46.052;14.544;2023-02-03T07:44:37;99185.22;;;1.73;100.00
56182;BME280;51963;46.052;14.544;2023-02-03T07:47:02;99180.84;;;1.74;100.00
56182;BME280;51963;46.052;14.544;2023-02-03T07:49:28;99181.00;;;1.59;100.00
56182;BME280;51963;46.052;14.544;2023-02-03T07:51:53;99182.25;;;2.02;100.00
56182;BME280;51963;46.052;14.544;2023-02-03T07:54:20;99175.44;;;2.83;100.00
56182;BME280;51963;46.052;14.544;2023-02-03T07:56:46;99179.63;;;2.97;100.00
56182;BME280;51963;46.052;14.544;2023-02-03T07:59:11;99175.41;;;3.28;100.00
56182;BME280;51963;46.052;14.544;2023-02-03T08:01:37;99165.31;;;3.79;100.00
56182;BME280;51963;46.052;14.544;2023-02-03T08:04:02;99159.19;;;4.01;100.00
56182;BME280;51963;46.052;14.544;2023-02-03T08:06:30;99161.63;;;4.35;100.00
56182;BME280;51963;46.052;14.544;2023-02-03T08:08:55;99158.44;;;4.63;100.00
56182;BME280;51963;46.052;14.544;2023-02-03T08:11:20;99158.53;;;4.82;100.00
56182;BME280;51963;46.052;14.544;2023-02-03T08:13:46;99153.09;;;4.43;100.00
56182;BME280;51963;46.052;14.544;2023-02-03T08:16:14;99156.00;;;4.71;99.96
56182;BME280;51963;46.052;14.544;2023-02-03T08:18:39;99160.44;;;4.49;100.00
56182;BME280;51963;46.052;14.544;2023-02-03T08:21:05;99160.47;;;4.28;100.00
56182;BME280;51963;46.052;14.544;2023-02-03T08:23:30;99147.22;;;4.30;100.00
56182;BME280;51963;46.052;14.544;2023-02-03T08:25:56;99125.88;;;4.55;100.00
56182;BME280;51963;46.052;14.544;2023-02-03T08:28:21;99111.53;;;4.81;100.00
56182;BME280;51963;46.052;14.544;2023-02-03T08:30:47;99116.00;;;5.00;99.57
56182;BME280;51963;46.052;14.544;2023-02-03T08:33:12;99123.94;;;4.89;100.00
56182;BME280;51963;46.052;14.544;2023-02-03T08:35:38;99108.94;;;4.91;100.00
56182;BME280;51963;46.052;14.544;2023-02-03T08:38:04;99106.94;;;5.24;98.19
56182;BME280;51963;46.052;14.544;2023-02-03T08:40:29;99099.28;;;5.52;96.70
56182;BME280;51963;46.052;14.544;2023-02-03T08:42:55;99102.47;;;5.85;93.72
56182;BME280;51963;46.052;14.544;2023-02-03T08:45:20;99115.03;;;5.91;93.35
56182;BME280;51963;46.052;14.544;2023-02-03T08:47:46;99112.69;;;6.08;91.72
56182;BME280;51963;46.052;14.544;2023-02-03T08:50:11;99113.25;;;6.01;93.86
56182;BME280;51963;46.052;14.544;2023-02-03T08:52:38;99099.38;;;6.29;90.67
56182;BME280;51963;46.052;14.544;2023-02-03T08:55:04;99108.72;;;6.51;89.19
56182;BME280;51963;46.052;14.544;2023-02-03T08:57:33;99116.84;;;6.96;88.21
56182;BME280;51963;46.052;14.544;2023-02-03T08:59:59;99127.88;;;7.27;86.33
56182;BME280;51963;46.052;14.544;2023-02-03T09:02:24;99123.16;;;7.31;85.77
56182;BME280;51963;46.052;14.544;2023-02-03T09:04:49;99124.31;;;7.46;84.53
56182;BME280;51963;46.052;14.544;2023-02-03T09:07:16;99118.75;;;7.86;83.04
56182;BME280;51963;46.052;14.544;2023-02-03T09:09:41;99109.44;;;7.73;82.52
56182;BME280;51963;46.052;14.544;2023-02-03T09:12:07;99109.19;;;8.29;80.38
56182;BME280;51963;46.052;14.544;2023-02-03T09:14:33;99098.25;;;8.42;80.41
56182;BME280;51963;46.052;14.544;2023-02-03T09:16:59;99102.38;;;8.71;78.52
56182;BME280;51963;46.052;14.544;2023-02-03T09:19:25;99105.28;;;8.94;76.39
56182;BME280;51963;46.052;14.544;2023-02-03T09:21:51;99119.03;;;9.15;76.35
56182;BME280;51963;46.052;14.544;2023-02-03T09:24:17;99122.28;;;9.00;77.42
56182;BME280;51963;46.052;14.544;2023-02-03T09:26:43;99122.66;;;9.14;74.79
56182;BME280;51963;46.052;14.544;2023-02-03T09:29:09;99116.66;;;9.63;73.54
56182;BME280;51963;46.052;14.544;2023-02-03T09:31:34;99116.78;;;9.28;75.65
56182;BME280;51963;46.052;14.544;2023-02-03T09:33:59;99102.66;;;9.71;74.20
56182;BME280;51963;46.052;14.544;2023-02-03T09:36:27;99099.81;;;9.56;72.58
56182;BME280;51963;46.052;14.544;2023-02-03T09:38:56;99097.19;;;10.22;69.83
56182;BME280;51963;46.052;14.544;2023-02-03T09:46:54;99088.91;;;10.41;69.14
56182;BME280;51963;46.052;14.544;2023-02-03T09:49:30;99086.22;;;10.66;67.74
56182;BME280;51963;46.052;14.544;2023-02-03T09:51:58;99078.97;;;10.52;67.05
56182;BME280;51963;46.052;14.544;2023-02-03T09:54:30;99076.00;;;10.63;67.58
56182;BME280;51963;46.052;14.544;2023-02-03T09:57:29;99073.66;;;10.68;66.75
56182;BME280;51963;46.052;14.544;2023-02-03T09:59:56;99075.34;;;10.53;67.32
56182;BME280;51963;46.052;14.544;2023-02-03T10:04:56;99094.41;;;11.20;65.15
56182;BME280;51963;46.052;14.544;2023-02-03T10:07:42;99091.28;;;11.48;62.42
56182;BME280;51963;46.052;14.544;2023-02-03T10:10:15;99080.53;;;11.49;62.47
56182;BME280;51963;46.052;14.544;2023-02-03T10:15:54;99062.06;;;11.09;64.74
56182;BME280;51963;46.052;14.544;2023-02-03T10:18:16;99059.66;;;11.69;61.50
56182;BME280;51963;46.052;14.544;2023-02-03T10:20:50;99055.56;;;11.67;61.31
56182;BME280;51963;46.052;14.544;2023-02-03T10:23:23;99038.53;;;12.23;58.50
56182;BME280;51963;46.052;14.544;2023-02-03T10:25:51;99043.75;;;11.93;60.62
56182;BME280;51963;46.052;14.544;2023-02-03T10:28:23;99035.41;;;12.34;57.67
56182;BME280;51963;46.052;14.544;2023-02-03T10:30:53;99027.38;;;12.12;57.61
56182;BME280;51963;46.052;14.544;2023-02-03T10:33:22;99022.06;;;12.42;58.34
56182;BME280;51963;46.052;14.544;2023-02-03T10:35:50;99027.28;;;12.51;57.27
56182;BME280;51963;46.052;14.544;2023-02-03T10:38:38;99030.94;;;12.50;57.83
56182;BME280;51963;46.052;14.544;2023-02-03T10:41:05;99028.88;;;13.18;54.51
56182;BME280;51963;46.052;14.544;2023-02-03T10:43:30;99013.38;;;13.00;52.53
56182;BME280;51963;46.052;14.544;2023-02-03T10:46:13;98995.31;;;13.11;52.44
56182;BME280;51963;46.052;14.544;2023-02-03T10:48:38;98978.88;;;13.00;55.64
56182;BME280;51963;46.052;14.544;2023-02-03T10:51:04;98969.53;;;13.48;52.67
56182;BME280;51963;46.052;14.544;2023-02-03T10:53:36;98961.44;;;13.56;52.90
56182;BME280;51963;46.052;14.544;2023-02-03T10:56:35;98960.09;;;13.24;52.53
56182;BME280;51963;46.052;14.544;2023-02-03T10:58:56;98965.00;;;12.46;52.68
56182;BME280;51963;46.052;14.544;2023-02-03T11:07:06;98964.13;;;14.27;48.78
56182;BME280;51963;46.052;14.544;2023-02-03T11:09:36;98962.63;;;14.17;48.19
56182;BME280;51963;46.052;14.544;2023-02-03T11:12:06;98952.47;;;14.76;45.65
56182;BME280;51963;46.052;14.544;2023-02-03T11:14:37;98942.44;;;14.78;46.47
56182;BME280;51963;46.052;14.544;2023-02-03T11:17:07;98938.66;;;14.52;46.86
56182;BME280;51963;46.052;14.544;2023-02-03T11:19:35;98932.69;;;15.39;45.31
56182;BME280;51963;46.052;14.544;2023-02-03T11:22:03;98919.13;;;15.75;43.86
56182;BME280;51963;46.052;14.544;2023-02-03T11:24:29;98921.41;;;15.24;43.81
56182;BME280;51963;46.052;14.544;2023-02-03T11:29:31;98904.00;;;15.15;45.07
56182;BME280;51963;46.052;14.544;2023-02-03T11:32:00;98892.72;;;15.13;45.37
56182;BME280;51963;46.052;14.544;2023-02-03T11:34:31;98889.56;;;16.03;43.81
56182;BME280;51963;46.052;14.544;2023-02-03T11:39:42;98881.66;;;15.43;43.61
56182;BME280;51963;46.052;14.544;2023-02-03T11:42:21;98876.75;;;15.46;43.95
56182;BME280;51963;46.052;14.544;2023-02-03T11:44:46;98870.63;;;16.57;41.60
56182;BME280;51963;46.052;14.544;2023-02-03T11:47:12;98870.88;;;16.10;42.54
56182;BME280;51963;46.052;14.544;2023-02-03T11:49:59;98882.63;;;15.75;44.40
56182;BME280;51963;46.052;14.544;2023-02-03T11:52:43;98879.84;;;16.61;42.28
56182;BME280;51963;46.052;14.544;2023-02-03T11:55:14;98870.63;;;16.18;42.39
56182;BME280;51963;46.052;14.544;2023-02-03T11:58:51;98874.28;;;16.31;42.22
56182;BME280;51963;46.052;14.544;2023-02-03T12:00:46;98855.78;;;15.63;43.54
56182;BME280;51963;46.052;14.544;2023-02-03T12:06:26;98836.88;;;13.75;47.75
56182;BME280;51963;46.052;14.544;2023-02-03T12:08:56;98846.06;;;14.28;47.50
56182;BME280;51963;46.052;14.544;2023-02-03T12:21:36;98792.84;;;15.62;44.95
56182;BME280;51963;46.052;14.544;2023-02-03T12:29:21;98777.81;;;15.22;45.86
56182;BME280;51963;46.052;14.544;2023-02-03T12:36:48;98761.38;;;14.18;47.33
56182;BME280;51963;46.052;14.544;2023-02-03T12:39:25;98762.41;;;14.23;47.13
56182;BME280;51963;46.052;14.544;2023-02-03T12:41:59;98753.88;;;14.95;45.00
56182;BME280;51963;46.052;14.544;2023-02-03T12:44:28;98760.69;;;13.96;46.58
56182;BME280;51963;46.052;14.544;2023-02-03T12:47:02;98747.84;;;13.99;47.22
56182;BME280;51963;46.052;14.544;2023-02-03T12:51:56;98750.03;;;13.82;46.39
56182;BME280;51963;46.052;14.544;2023-02-03T12:54:38;98742.19;;;12.90;49.27
56182;BME280;51963;46.052;14.544;2023-02-03T12:57:53;98726.88;;;13.27;48.16
56182;BME280;51963;46.052;14.544;2023-02-03T12:59:56;98715.19;;;13.21;49.00
56182;BME280;51963;46.052;14.544;2023-02-03T13:02:25;98711.75;;;13.63;47.90
56182;BME280;51963;46.052;14.544;2023-02-03T13:04:53;98693.63;;;13.93;46.86
56182;BME280;51963;46.052;14.544;2023-02-03T13:07:23;98685.72;;;13.45;49.17
56182;BME280;51963;46.052;14.544;2023-02-03T13:10:13;98696.91;;;12.98;49.92
56182;BME280;51963;46.052;14.544;2023-02-03T13:12:41;98691.91;;;13.17;49.83
56182;BME280;51963;46.052;14.544;2023-02-03T13:17:52;98656.22;;;12.56;52.38
56182;BME280;51963;46.052;14.544;2023-02-03T13:20:23;98683.06;;;13.45;50.38
56182;BME280;51963;46.052;14.544;2023-02-03T13:22:50;98658.13;;;12.97;52.42
56182;BME280;51963;46.052;14.544;2023-02-03T13:27:49;98663.91;;;13.56;51.22
56182;BME280;51963;46.052;14.544;2023-02-03T13:33:17;98692.47;;;13.05;51.91
56182;BME280;51963;46.052;14.544;2023-02-03T13:38:52;98682.53;;;12.86;52.61
56182;BME280;51963;46.052;14.544;2023-02-03T13:41:35;98667.31;;;12.66;53.53
56182;BME280;51963;46.052;14.544;2023-02-03T13:44:02;98661.47;;;13.13;52.63
56182;BME280;51963;46.052;14.544;2023-02-03T13:46:29;98667.44;;;12.86;53.51
56182;BME280;51963;46.052;14.544;2023-02-03T13:48:56;98652.19;;;12.60;54.14
56182;BME280;51963;46.052;14.544;2023-02-03T13:51:24;98645.16;;;12.81;54.02
56182;BME280;51963;46.052;14.544;2023-02-03T13:53:58;98632.31;;;12.49;54.81
56182;BME280;51963;46.052;14.544;2023-02-03T13:56:24;98642.91;;;12.77;54.06
56182;BME280;51963;46.052;14.544;2023-02-03T13:58:59;98624.97;;;13.28;53.47
56182;BME280;51963;46.052;14.544;2023-02-03T14:01:30;98624.47;;;13.04;53.21
56182;BME280;51963;46.052;14.544;2023-02-03T14:04:02;98618.81;;;12.79;53.57
56182;BME280;51963;46.052;14.544;2023-02-03T14:09:18;98606.28;;;12.31;55.63
56182;BME280;51963;46.052;14.544;2023-02-03T14:11:44;98601.69;;;12.82;54.99
56182;BME280;51963;46.052;14.544;2023-02-03T14:16:36;98585.84;;;12.25;56.47
56182;BME280;51963;46.052;14.544;2023-02-03T14:19:02;98586.72;;;12.32;56.57
56182;BME280;51963;46.052;14.544;2023-02-03T14:21:36;98582.41;;;12.02;57.04
56182;BME280;51963;46.052;14.544;2023-02-03T14:24:04;98568.78;;;11.84;58.44